sensor_id;sensor_type;location;lat;lon;timestamp;temperature;humidity
4107;DHT22;21906;50.812;7.132;2024-03-02T00:00:11;10.10;64.10
4107;DHT22;21906;50.812;7.132;2024-03-02T00:02:45;10.20;63.90
4107;DHT22;21906;50.812;7.132;2024-03-02T00:05:12;10.20;63.70
4107;DHT22;21906;50.812;7.132;2024-03-02T00:07:42;10.20;63.70
4107;DHT22;21906;50.812;7.132;2024-03-02T00:10:10;10.20;63.80
4107;DHT22;21906;50.812;7.132;2024-03-02T00:12:37;10.20;63.90
4107;DHT22;21906;50.812;7.132;2024-03-02T00:17:58;10.20;64.10
4107;DHT22;21906;50.812;7.132;2024-03-02T00:20:24;10.20;63.90
4107;DHT22;21906;50.812;7.132;2024-03-02T00:23:02;10.20;64.00
4107;DHT22;21906;50.812;7.132;2024-03-02T00:25:37;10.20;63.90
4107;DHT22;21906;50.812;7.132;2024-03-02T00:28:04;10.10;64.20
4107;DHT22;21906;50.812;7.132;2024-03-02T00:30:55;10.20;64.00
4107;DHT22;21906;50.812;7.132;2024-03-02T00:33:22;10.20;63.70
4107;DHT22;21906;50.812;7.132;2024-03-02T00:35:49;10.20;63.90
4107;DHT22;21906;50.812;7.132;2024-03-02T00:38:15;10.20;63.80
4107;DHT22;21906;50.812;7.132;2024-03-02T00:40:45;10.30;63.80
4107;DHT22;21906;50.812;7.132;2024-03-02T00:45:57;10.30;63.50
4107;DHT22;21906;50.812;7.132;2024-03-02T00:48:23;10.20;64.00
4107;DHT22;21906;50.812;7.132;2024-03-02T00:50:53;10.20;63.80
4107;DHT22;21906;50.812;7.132;2024-03-02T00:53:22;10.30;63.80
4107;DHT22;21906;50.812;7.132;2024-03-02T00:55:50;10.20;63.80
4107;DHT22;21906;50.812;7.132;2024-03-02T00:58:15;10.20;63.80
4107;DHT22;21906;50.812;7.132;2024-03-02T01:00:41;10.20;63.70
4107;DHT22;21906;50.812;7.132;2024-03-02T01:03:07;10.20;63.50
4107;DHT22;21906;50.812;7.132;2024-03-02T01:05:33;10.10;63.80
4107;DHT22;21906;50.812;7.132;2024-03-02T01:07:59;10.10;63.70
4107;DHT22;21906;50.812;7.132;2024-03-02T01:10:25;10.10;63.70
4107;DHT22;21906;50.812;7.132;2024-03-02T01:12:53;10.10;63.70
4107;DHT22;21906;50.812;7.132;2024-03-02T01:15:19;10.20;63.30
4107;DHT22;21906;50.812;7.132;2024-03-02T01:17:45;10.20;63.50
4107;DHT22;21906;50.812;7.132;2024-03-02T01:20:11;10.20;63.30
4107;DHT22;21906;50.812;7.132;2024-03-02T01:22:36;10.20;63.50
4107;DHT22;21906;50.812;7.132;2024-03-02T01:25:03;10.10;63.40
4107;DHT22;21906;50.812;7.132;2024-03-02T01:27:29;10.10;63.30
4107;DHT22;21906;50.812;7.132;2024-03-02T01:29:54;10.10;63.50
4107;DHT22;21906;50.812;7.132;2024-03-02T01:32:20;10.20;63.20
4107;DHT22;21906;50.812;7.132;2024-03-02T01:34:46;10.20;63.10
4107;DHT22;21906;50.812;7.132;2024-03-02T01:37:12;10.30;62.80
4107;DHT22;21906;50.812;7.132;2024-03-02T01:39:38;10.30;62.70
4107;DHT22;21906;50.812;7.132;2024-03-02T01:42:04;10.30;62.70
4107;DHT22;21906;50.812;7.132;2024-03-02T01:44:29;10.30;62.70
4107;DHT22;21906;50.812;7.132;2024-03-02T01:46:55;10.30;62.50
4107;DHT22;21906;50.812;7.132;2024-03-02T01:49:21;10.40;62.50
4107;DHT22;21906;50.812;7.132;2024-03-02T01:51:46;10.40;62.60
4107;DHT22;21906;50.812;7.132;2024-03-02T01:54:12;10.40;62.40
4107;DHT22;21906;50.812;7.132;2024-03-02T01:56:38;10.40;62.30
4107;DHT22;21906;50.812;7.132;2024-03-02T01:59:03;10.40;62.20
4107;DHT22;21906;50.812;7.132;2024-03-02T02:01:29;10.30;62.40
4107;DHT22;21906;50.812;7.132;2024-03-02T02:03:56;10.30;62.40
4107;DHT22;21906;50.812;7.132;2024-03-02T02:06:22;10.30;62.40
4107;DHT22;21906;50.812;7.132;2024-03-02T02:08:47;10.10;62.90
4107;DHT22;21906;50.812;7.132;2024-03-02T02:11:17;10.20;62.80
4107;DHT22;21906;50.812;7.132;2024-03-02T02:13:42;10.10;62.90
4107;DHT22;21906;50.812;7.132;2024-03-02T02:16:08;10.00;63.30
4107;DHT22;21906;50.812;7.132;2024-03-02T02:18:35;10.00;63.30
4107;DHT22;21906;50.812;7.132;2024-03-02T02:21:01;10.10;63.00
4107;DHT22;21906;50.812;7.132;2024-03-02T02:23:27;10.10;63.10
4107;DHT22;21906;50.812;7.132;2024-03-02T02:25:53;10.00;63.10
4107;DHT22;21906;50.812;7.132;2024-03-02T02:28:18;10.00;63.20
4107;DHT22;21906;50.812;7.132;2024-03-02T02:30:44;10.10;63.10
4107;DHT22;21906;50.812;7.132;2024-03-02T02:33:10;10.10;63.10
4107;DHT22;21906;50.812;7.132;2024-03-02T02:35:35;10.00;62.90
4107;DHT22;21906;50.812;7.132;2024-03-02T02:38:02;10.00;63.00
4107;DHT22;21906;50.812;7.132;2024-03-02T02:40:28;10.00;62.90
4107;DHT22;21906;50.812;7.132;2024-03-02T02:42:56;10.00;62.90
4107;DHT22;21906;50.812;7.132;2024-03-02T02:45:22;9.90;63.30
4107;DHT22;21906;50.812;7.132;2024-03-02T02:47:48;9.90;63.10
4107;DHT22;21906;50.812;7.132;2024-03-02T02:50:17;9.90;63.10
4107;DHT22;21906;50.812;7.132;2024-03-02T02:52:43;9.90;63.10
4107;DHT22;21906;50.812;7.132;2024-03-02T02:55:10;9.90;63.10
4107;DHT22;21906;50.812;7.132;2024-03-02T02:57:38;10.00;63.10
4107;DHT22;21906;50.812;7.132;2024-03-02T03:00:12;10.10;62.80
4107;DHT22;21906;50.812;7.132;2024-03-02T03:02:42;9.90;63.10
4107;DHT22;21906;50.812;7.132;2024-03-02T03:05:09;10.00;62.90
4107;DHT22;21906;50.812;7.132;2024-03-02T03:07:35;10.10;62.70
4107;DHT22;21906;50.812;7.132;2024-03-02T03:10:02;10.10;62.60
4107;DHT22;21906;50.812;7.132;2024-03-02T03:12:29;10.20;62.50
4107;DHT22;21906;50.812;7.132;2024-03-02T03:14:55;10.10;62.60
4107;DHT22;21906;50.812;7.132;2024-03-02T03:17:24;10.10;62.60
4107;DHT22;21906;50.812;7.132;2024-03-02T03:19:50;10.10;62.60
4107;DHT22;21906;50.812;7.132;2024-03-02T03:22:16;10.10;62.70
4107;DHT22;21906;50.812;7.132;2024-03-02T03:24:41;10.10;62.80
4107;DHT22;21906;50.812;7.132;2024-03-02T03:27:07;10.10;63.00
4107;DHT22;21906;50.812;7.132;2024-03-02T03:29:33;10.10;63.00
4107;DHT22;21906;50.812;7.132;2024-03-02T03:31:58;10.10;63.00
4107;DHT22;21906;50.812;7.132;2024-03-02T03:34:24;10.00;62.90
4107;DHT22;21906;50.812;7.132;2024-03-02T03:36:50;9.90;63.20
4107;DHT22;21906;50.812;7.132;2024-03-02T03:39:15;9.90;63.20
4107;DHT22;21906;50.812;7.132;2024-03-02T03:41:41;9.90;63.10
4107;DHT22;21906;50.812;7.132;2024-03-02T03:44:07;10.00;63.10
4107;DHT22;21906;50.812;7.132;2024-03-02T03:46:32;10.00;63.00
4107;DHT22;21906;50.812;7.132;2024-03-02T03:48:58;10.10;63.00
4107;DHT22;21906;50.812;7.132;2024-03-02T03:51:23;10.00;63.30
4107;DHT22;21906;50.812;7.132;2024-03-02T03:53:49;10.00;63.10
4107;DHT22;21906;50.812;7.132;2024-03-02T03:56:15;10.00;63.40
4107;DHT22;21906;50.812;7.132;2024-03-02T03:58:40;10.00;63.30
4107;DHT22;21906;50.812;7.132;2024-03-02T04:01:06;9.90;63.60
4107;DHT22;21906;50.812;7.132;2024-03-02T04:03:31;9.90;63.70
4107;DHT22;21906;50.812;7.132;2024-03-02T04:05:57;9.90;63.70
4107;DHT22;21906;50.812;7.132;2024-03-02T04:08:23;9.80;63.80
4107;DHT22;21906;50.812;7.132;2024-03-02T04:10:48;9.90;63.40
4107;DHT22;21906;50.812;7.132;2024-03-02T04:13:14;9.90;63.30
4107;DHT22;21906;50.812;7.132;2024-03-02T04:15:40;9.90;63.10
4107;DHT22;21906;50.812;7.132;2024-03-02T04:18:08;9.90;63.00
4107;DHT22;21906;50.812;7.132;2024-03-02T04:20:34;9.70;63.30
4107;DHT22;21906;50.812;7.132;2024-03-02T04:22:59;9.80;63.40
4107;DHT22;21906;50.812;7.132;2024-03-02T04:25:25;9.70;63.30
4107;DHT22;21906;50.812;7.132;2024-03-02T04:27:50;9.70;63.60
4107;DHT22;21906;50.812;7.132;2024-03-02T04:30:16;9.70;63.60
4107;DHT22;21906;50.812;7.132;2024-03-02T04:32:42;9.70;63.50
4107;DHT22;21906;50.812;7.132;2024-03-02T04:35:11;9.70;63.60
4107;DHT22;21906;50.812;7.132;2024-03-02T04:37:38;9.70;63.60
4107;DHT22;21906;50.812;7.132;2024-03-02T04:40:05;9.70;63.50
4107;DHT22;21906;50.812;7.132;2024-03-02T04:42:34;9.70;63.50
4107;DHT22;21906;50.812;7.132;2024-03-02T04:45:00;9.70;63.60
4107;DHT22;21906;50.812;7.132;2024-03-02T04:47:26;9.70;63.90
4107;DHT22;21906;50.812;7.132;2024-03-02T04:49:51;9.70;64.10
4107;DHT22;21906;50.812;7.132;2024-03-02T04:52:17;9.70;64.20
4107;DHT22;21906;50.812;7.132;2024-03-02T04:54:43;9.70;64.00
4107;DHT22;21906;50.812;7.132;2024-03-02T04:57:27;9.70;63.80
4107;DHT22;21906;50.812;7.132;2024-03-02T04:59:53;9.70;63.90
4107;DHT22;21906;50.812;7.132;2024-03-02T05:02:18;9.70;63.90
4107;DHT22;21906;50.812;7.132;2024-03-02T05:04:44;9.70;63.90
4107;DHT22;21906;50.812;7.132;2024-03-02T05:07:10;9.70;63.90
4107;DHT22;21906;50.812;7.132;2024-03-02T05:09:35;9.70;64.00
4107;DHT22;21906;50.812;7.132;2024-03-02T05:12:01;9.70;64.00
4107;DHT22;21906;50.812;7.132;2024-03-02T05:14:46;9.70;64.10
4107;DHT22;21906;50.812;7.132;2024-03-02T05:17:11;9.70;64.00
4107;DHT22;21906;50.812;7.132;2024-03-02T05:19:37;9.70;64.10
4107;DHT22;21906;50.812;7.132;2024-03-02T05:22:03;9.70;64.00
4107;DHT22;21906;50.812;7.132;2024-03-02T05:24:29;9.70;64.00
4107;DHT22;21906;50.812;7.132;2024-03-02T05:26:54;9.70;63.90
4107;DHT22;21906;50.812;7.132;2024-03-02T05:29:20;9.60;64.00
4107;DHT22;21906;50.812;7.132;2024-03-02T05:31:46;9.60;64.10
4107;DHT22;21906;50.812;7.132;2024-03-02T05:34:12;9.60;64.20
4107;DHT22;21906;50.812;7.132;2024-03-02T05:36:38;9.50;64.40
4107;DHT22;21906;50.812;7.132;2024-03-02T05:39:04;9.40;64.40
4107;DHT22;21906;50.812;7.132;2024-03-02T05:41:34;9.40;64.50
4107;DHT22;21906;50.812;7.132;2024-03-02T05:44:00;9.40;64.60
4107;DHT22;21906;50.812;7.132;2024-03-02T05:46:27;9.30;65.00
4107;DHT22;21906;50.812;7.132;2024-03-02T05:48:52;9.30;65.10
4107;DHT22;21906;50.812;7.132;2024-03-02T05:51:18;9.10;65.40
4107;DHT22;21906;50.812;7.132;2024-03-02T05:53:43;9.20;65.50
4107;DHT22;21906;50.812;7.132;2024-03-02T05:56:09;9.10;65.80
4107;DHT22;21906;50.812;7.132;2024-03-02T05:58:35;9.20;65.60
4107;DHT22;21906;50.812;7.132;2024-03-02T06:01:19;9.20;65.60
4107;DHT22;21906;50.812;7.132;2024-03-02T06:03:45;9.20;65.70
4107;DHT22;21906;50.812;7.132;2024-03-02T06:06:11;9.20;65.60
4107;DHT22;21906;50.812;7.132;2024-03-02T06:08:37;9.20;65.60
4107;DHT22;21906;50.812;7.132;2024-03-02T06:11:03;9.20;65.80
4107;DHT22;21906;50.812;7.132;2024-03-02T06:13:29;9.20;65.80
4107;DHT22;21906;50.812;7.132;2024-03-02T06:15:54;9.20;66.10
4107;DHT22;21906;50.812;7.132;2024-03-02T06:18:20;9.10;66.30
4107;DHT22;21906;50.812;7.132;2024-03-02T06:20:45;9.00;66.50
4107;DHT22;21906;50.812;7.132;2024-03-02T06:23:11;9.00;66.70
4107;DHT22;21906;50.812;7.132;2024-03-02T06:25:37;9.10;66.70
4107;DHT22;21906;50.812;7.132;2024-03-02T06:28:03;9.10;66.60
4107;DHT22;21906;50.812;7.132;2024-03-02T06:30:29;9.20;66.50
4107;DHT22;21906;50.812;7.132;2024-03-02T06:32:55;9.20;66.60
4107;DHT22;21906;50.812;7.132;2024-03-02T06:35:21;9.20;66.50
4107;DHT22;21906;50.812;7.132;2024-03-02T06:37:47;9.10;66.90
4107;DHT22;21906;50.812;7.132;2024-03-02T06:40:12;9.00;67.30
4107;DHT22;21906;50.812;7.132;2024-03-02T06:42:38;9.00;67.30
4107;DHT22;21906;50.812;7.132;2024-03-02T06:45:04;9.00;67.40
4107;DHT22;21906;50.812;7.132;2024-03-02T06:47:29;9.10;67.30
4107;DHT22;21906;50.812;7.132;2024-03-02T06:49:55;9.10;67.20
4107;DHT22;21906;50.812;7.132;2024-03-02T06:52:22;9.20;66.90
4107;DHT22;21906;50.812;7.132;2024-03-02T06:54:48;9.30;66.70
4107;DHT22;21906;50.812;7.132;2024-03-02T06:57:14;9.20;67.00
4107;DHT22;21906;50.812;7.132;2024-03-02T06:59:39;9.20;67.00
4107;DHT22;21906;50.812;7.132;2024-03-02T07:02:05;9.20;67.00
4107;DHT22;21906;50.812;7.132;2024-03-02T07:04:30;9.20;67.20
4107;DHT22;21906;50.812;7.132;2024-03-02T07:06:56;9.20;67.20
4107;DHT22;21906;50.812;7.132;2024-03-02T07:09:22;9.20;67.30
4107;DHT22;21906;50.812;7.132;2024-03-02T07:11:48;9.10;67.30
4107;DHT22;21906;50.812;7.132;2024-03-02T07:14:14;9.10;67.30
4107;DHT22;21906;50.812;7.132;2024-03-02T07:16:40;9.10;67.20
4107;DHT22;21906;50.812;7.132;2024-03-02T07:19:06;9.10;67.10
4107;DHT22;21906;50.812;7.132;2024-03-02T07:21:32;9.30;66.90
4107;DHT22;21906;50.812;7.132;2024-03-02T07:23:58;9.40;66.60
4107;DHT22;21906;50.812;7.132;2024-03-02T07:26:25;9.40;66.40
4107;DHT22;21906;50.812;7.132;2024-03-02T07:28:51;9.40;66.30
4107;DHT22;21906;50.812;7.132;2024-03-02T07:31:17;9.50;66.30
4107;DHT22;21906;50.812;7.132;2024-03-02T07:33:45;9.50;66.30
4107;DHT22;21906;50.812;7.132;2024-03-02T07:36:12;9.40;66.60
4107;DHT22;21906;50.812;7.132;2024-03-02T07:38:38;9.50;66.40
4107;DHT22;21906;50.812;7.132;2024-03-02T07:41:04;9.60;66.60
4107;DHT22;21906;50.812;7.132;2024-03-02T07:43:30;9.70;66.10
4107;DHT22;21906;50.812;7.132;2024-03-02T07:45:57;9.70;66.00
4107;DHT22;21906;50.812;7.132;2024-03-02T07:48:23;9.80;66.00
4107;DHT22;21906;50.812;7.132;2024-03-02T07:50:48;9.90;65.80
4107;DHT22;21906;50.812;7.132;2024-03-02T07:53:14;10.00;65.50
4107;DHT22;21906;50.812;7.132;2024-03-02T07:55:40;10.10;65.40
4107;DHT22;21906;50.812;7.132;2024-03-02T07:58:06;10.10;65.20
4107;DHT22;21906;50.812;7.132;2024-03-02T08:00:32;10.00;65.10
4107;DHT22;21906;50.812;7.132;2024-03-02T08:02:58;9.90;65.40
4107;DHT22;21906;50.812;7.132;2024-03-02T08:05:24;10.00;65.30
4107;DHT22;21906;50.812;7.132;2024-03-02T08:07:50;10.10;65.10
4107;DHT22;21906;50.812;7.132;2024-03-02T08:10:18;10.20;65.40
4107;DHT22;21906;50.812;7.132;2024-03-02T08:12:45;10.30;67.90
4107;DHT22;21906;50.812;7.132;2024-03-02T08:15:10;10.50;70.90
4107;DHT22;21906;50.812;7.132;2024-03-02T08:17:39;10.60;69.20
4107;DHT22;21906;50.812;7.132;2024-03-02T08:20:11;10.80;70.00
4107;DHT22;21906;50.812;7.132;2024-03-02T08:22:36;10.90;67.40
4107;DHT22;21906;50.812;7.132;2024-03-02T08:25:03;11.00;67.10
4107;DHT22;21906;50.812;7.132;2024-03-02T08:27:28;11.20;67.60
4107;DHT22;21906;50.812;7.132;2024-03-02T08:29:54;11.30;65.90
4107;DHT22;21906;50.812;7.132;2024-03-02T08:32:20;11.40;66.00
4107;DHT22;21906;50.812;7.132;2024-03-02T08:34:45;11.50;65.60
4107;DHT22;21906;50.812;7.132;2024-03-02T08:37:11;11.60;66.00
4107;DHT22;21906;50.812;7.132;2024-03-02T08:39:37;11.80;65.00
4107;DHT22;21906;50.812;7.132;2024-03-02T08:42:03;11.90;64.10
4107;DHT22;21906;50.812;7.132;2024-03-02T08:44:30;11.90;63.10
4107;DHT22;21906;50.812;7.132;2024-03-02T08:46:55;12.00;62.60
4107;DHT22;21906;50.812;7.132;2024-03-02T08:49:21;12.10;61.50
4107;DHT22;21906;50.812;7.132;2024-03-02T08:51:47;12.00;61.10
4107;DHT22;21906;50.812;7.132;2024-03-02T08:54:21;12.10;61.20
4107;DHT22;21906;50.812;7.132;2024-03-02T08:56:47;12.10;61.30
4107;DHT22;21906;50.812;7.132;2024-03-02T08:59:13;12.20;60.30
4107;DHT22;21906;50.812;7.132;2024-03-02T09:01:39;12.20;60.40
4107;DHT22;21906;50.812;7.132;2024-03-02T09:04:07;12.20;60.20
4107;DHT22;21906;50.812;7.132;2024-03-02T09:06:34;12.20;59.50
4107;DHT22;21906;50.812;7.132;2024-03-02T09:09:00;12.30;58.90
4107;DHT22;21906;50.812;7.132;2024-03-02T09:11:26;12.40;59.10
4107;DHT22;21906;50.812;7.132;2024-03-02T09:13:52;12.50;58.50
4107;DHT22;21906;50.812;7.132;2024-03-02T09:16:18;12.50;58.40
4107;DHT22;21906;50.812;7.132;2024-03-02T09:18:45;12.50;59.60
4107;DHT22;21906;50.812;7.132;2024-03-02T09:21:10;12.60;58.60
4107;DHT22;21906;50.812;7.132;2024-03-02T09:23:36;12.70;59.90
4107;DHT22;21906;50.812;7.132;2024-03-02T09:26:01;12.70;59.70
4107;DHT22;21906;50.812;7.132;2024-03-02T09:28:28;12.70;58.90
4107;DHT22;21906;50.812;7.132;2024-03-02T09:30:54;12.80;57.40
4107;DHT22;21906;50.812;7.132;2024-03-02T09:33:20;12.80;57.50
4107;DHT22;21906;50.812;7.132;2024-03-02T09:35:45;12.80;57.00
4107;DHT22;21906;50.812;7.132;2024-03-02T09:38:11;12.80;57.70
4107;DHT22;21906;50.812;7.132;2024-03-02T09:40:37;12.80;58.40
4107;DHT22;21906;50.812;7.132;2024-03-02T09:43:03;12.90;57.70
4107;DHT22;21906;50.812;7.132;2024-03-02T09:45:30;13.00;57.30
4107;DHT22;21906;50.812;7.132;2024-03-02T09:47:55;13.00;57.40
4107;DHT22;21906;50.812;7.132;2024-03-02T09:50:21;13.10;57.50
4107;DHT22;21906;50.812;7.132;2024-03-02T09:52:48;13.20;56.60
4107;DHT22;21906;50.812;7.132;2024-03-02T09:55:15;13.30;55.70
4107;DHT22;21906;50.812;7.132;2024-03-02T09:57:42;13.30;55.70
4107;DHT22;21906;50.812;7.132;2024-03-02T10:00:09;13.40;55.80
4107;DHT22;21906;50.812;7.132;2024-03-02T10:02:42;13.40;56.00
4107;DHT22;21906;50.812;7.132;2024-03-02T10:05:11;13.50;55.70
4107;DHT22;21906;50.812;7.132;2024-03-02T10:07:38;13.60;55.20
4107;DHT22;21906;50.812;7.132;2024-03-02T10:10:14;13.70;55.70
4107;DHT22;21906;50.812;7.132;2024-03-02T10:12:40;13.70;54.20
4107;DHT22;21906;50.812;7.132;2024-03-02T10:15:06;13.80;55.10
4107;DHT22;21906;50.812;7.132;2024-03-02T10:17:33;13.90;53.70
4107;DHT22;21906;50.812;7.132;2024-03-02T10:19:59;14.10;53.30
4107;DHT22;21906;50.812;7.132;2024-03-02T10:22:24;14.10;53.20
4107;DHT22;21906;50.812;7.132;2024-03-02T10:24:52;14.20;53.30
4107;DHT22;21906;50.812;7.132;2024-03-02T10:27:27;14.10;54.80
4107;DHT22;21906;50.812;7.132;2024-03-02T10:29:52;14.20;53.90
4107;DHT22;21906;50.812;7.132;2024-03-02T10:32:22;14.30;52.00
4107;DHT22;21906;50.812;7.132;2024-03-02T10:34:48;14.30;52.50
4107;DHT22;21906;50.812;7.132;2024-03-02T10:37:15;14.40;52.90
4107;DHT22;21906;50.812;7.132;2024-03-02T10:39:42;14.40;52.80
4107;DHT22;21906;50.812;7.132;2024-03-02T10:42:08;14.40;52.80
4107;DHT22;21906;50.812;7.132;2024-03-02T10:44:34;14.40;52.40
4107;DHT22;21906;50.812;7.132;2024-03-02T10:47:02;14.40;52.50
4107;DHT22;21906;50.812;7.132;2024-03-02T10:49:30;14.50;53.10
4107;DHT22;21906;50.812;7.132;2024-03-02T10:51:59;14.50;54.70
4107;DHT22;21906;50.812;7.132;2024-03-02T10:54:26;14.60;53.50
4107;DHT22;21906;50.812;7.132;2024-03-02T10:56:56;14.60;53.10
4107;DHT22;21906;50.812;7.132;2024-03-02T10:59:28;14.60;52.90
4107;DHT22;21906;50.812;7.132;2024-03-02T11:02:02;14.70;51.30
4107;DHT22;21906;50.812;7.132;2024-03-02T11:04:29;14.70;51.90
4107;DHT22;21906;50.812;7.132;2024-03-02T11:07:00;14.70;51.70
4107;DHT22;21906;50.812;7.132;2024-03-02T11:09:29;14.70;51.90
4107;DHT22;21906;50.812;7.132;2024-03-02T11:12:24;14.80;52.30
4107;DHT22;21906;50.812;7.132;2024-03-02T11:14:53;14.90;52.20
4107;DHT22;21906;50.812;7.132;2024-03-02T11:17:21;14.90;52.50
4107;DHT22;21906;50.812;7.132;2024-03-02T11:19:48;15.00;52.80
4107;DHT22;21906;50.812;7.132;2024-03-02T11:22:15;15.10;52.50
4107;DHT22;21906;50.812;7.132;2024-03-02T11:24:52;15.20;52.30
4107;DHT22;21906;50.812;7.132;2024-03-02T11:30:51;15.30;52.10
4107;DHT22;21906;50.812;7.132;2024-03-02T11:33:23;15.20;51.60
4107;DHT22;21906;50.812;7.132;2024-03-02T11:35:49;15.10;51.60
4107;DHT22;21906;50.812;7.132;2024-03-02T11:38:15;15.10;52.60
4107;DHT22;21906;50.812;7.132;2024-03-02T11:40:41;14.90;52.40
4107;DHT22;21906;50.812;7.132;2024-03-02T11:43:09;14.90;52.70
4107;DHT22;21906;50.812;7.132;2024-03-02T11:45:35;14.80;52.30
4107;DHT22;21906;50.812;7.132;2024-03-02T11:48:06;14.70;53.20
4107;DHT22;21906;50.812;7.132;2024-03-02T11:50:39;14.70;53.90
4107;DHT22;21906;50.812;7.132;2024-03-02T11:53:06;14.70;54.50
4107;DHT22;21906;50.812;7.132;2024-03-02T11:55:35;14.70;54.30
4107;DHT22;21906;50.812;7.132;2024-03-02T11:58:05;14.70;53.80
4107;DHT22;21906;50.812;7.132;2024-03-02T12:00:31;14.90;53.80
4107;DHT22;21906;50.812;7.132;2024-03-02T12:03:07;14.90;53.50
4107;DHT22;21906;50.812;7.132;2024-03-02T12:05:34;15.00;53.70
4107;DHT22;21906;50.812;7.132;2024-03-02T12:08:05;15.20;52.30
4107;DHT22;21906;50.812;7.132;2024-03-02T12:10:32;15.30;52.50
4107;DHT22;21906;50.812;7.132;2024-03-02T12:12:58;15.40;51.10
4107;DHT22;21906;50.812;7.132;2024-03-02T12:15:27;15.40;50.90
4107;DHT22;21906;50.812;7.132;2024-03-02T12:17:57;15.40;51.60
4107;DHT22;21906;50.812;7.132;2024-03-02T12:20:24;15.40;51.70
4107;DHT22;21906;50.812;7.132;2024-03-02T12:22:53;15.40;51.40
4107;DHT22;21906;50.812;7.132;2024-03-02T12:25:20;15.10;52.90
4107;DHT22;21906;50.812;7.132;2024-03-02T12:27:50;15.10;52.90
4107;DHT22;21906;50.812;7.132;2024-03-02T12:30:17;15.10;53.00
4107;DHT22;21906;50.812;7.132;2024-03-02T12:32:44;15.00;53.50
4107;DHT22;21906;50.812;7.132;2024-03-02T12:35:11;15.00;52.90
4107;DHT22;21906;50.812;7.132;2024-03-02T12:37:47;15.10;53.10
4107;DHT22;21906;50.812;7.132;2024-03-02T12:40:14;15.00;52.90
4107;DHT22;21906;50.812;7.132;2024-03-02T12:42:41;14.80;53.40
4107;DHT22;21906;50.812;7.132;2024-03-02T12:45:09;14.80;54.10
4107;DHT22;21906;50.812;7.132;2024-03-02T12:47:36;14.90;54.30
4107;DHT22;21906;50.812;7.132;2024-03-02T12:50:02;15.20;53.30
4107;DHT22;21906;50.812;7.132;2024-03-02T12:52:29;15.40;53.10
4107;DHT22;21906;50.812;7.132;2024-03-02T12:54:54;15.60;52.70
4107;DHT22;21906;50.812;7.132;2024-03-02T12:57:27;15.70;52.00
4107;DHT22;21906;50.812;7.132;2024-03-02T13:00:03;15.60;51.40
4107;DHT22;21906;50.812;7.132;2024-03-02T13:02:35;15.70;51.40
4107;DHT22;21906;50.812;7.132;2024-03-02T13:05:02;15.80;51.70
4107;DHT22;21906;50.812;7.132;2024-03-02T13:07:29;15.90;51.60
4107;DHT22;21906;50.812;7.132;2024-03-02T13:09:55;15.90;51.90
4107;DHT22;21906;50.812;7.132;2024-03-02T13:12:23;16.00;51.80
4107;DHT22;21906;50.812;7.132;2024-03-02T13:14:52;16.20;51.10
4107;DHT22;21906;50.812;7.132;2024-03-02T13:17:19;16.50;51.10
4107;DHT22;21906;50.812;7.132;2024-03-02T13:22:18;16.90;49.80
4107;DHT22;21906;50.812;7.132;2024-03-02T13:24:44;16.90;49.70
4107;DHT22;21906;50.812;7.132;2024-03-02T13:27:10;17.00;49.90
4107;DHT22;21906;50.812;7.132;2024-03-02T13:29:35;17.00;49.20
4107;DHT22;21906;50.812;7.132;2024-03-02T13:32:02;17.00;48.00
4107;DHT22;21906;50.812;7.132;2024-03-02T13:34:28;17.20;48.20
4107;DHT22;21906;50.812;7.132;2024-03-02T13:36:54;17.20;47.10
4107;DHT22;21906;50.812;7.132;2024-03-02T13:39:19;17.20;47.20
4107;DHT22;21906;50.812;7.132;2024-03-02T13:41:45;17.30;46.50
4107;DHT22;21906;50.812;7.132;2024-03-02T13:44:21;17.30;46.40
4107;DHT22;21906;50.812;7.132;2024-03-02T13:46:47;17.30;46.80
4107;DHT22;21906;50.812;7.132;2024-03-02T13:49:14;17.20;46.90
4107;DHT22;21906;50.812;7.132;2024-03-02T13:51:40;17.40;47.50
4107;DHT22;21906;50.812;7.132;2024-03-02T13:54:06;17.40;47.70
4107;DHT22;21906;50.812;7.132;2024-03-02T13:56:31;17.30;47.80
4107;DHT22;21906;50.812;7.132;2024-03-02T13:58:58;17.40;47.70
4107;DHT22;21906;50.812;7.132;2024-03-02T14:01:24;17.40;47.20
4107;DHT22;21906;50.812;7.132;2024-03-02T14:03:50;17.30;47.30
4107;DHT22;21906;50.812;7.132;2024-03-02T14:06:17;17.00;47.70
4107;DHT22;21906;50.812;7.132;2024-03-02T14:08:42;16.90;47.80
4107;DHT22;21906;50.812;7.132;2024-03-02T14:11:10;16.90;48.10
4107;DHT22;21906;50.812;7.132;2024-03-02T14:13:43;17.00;46.80
4107;DHT22;21906;50.812;7.132;2024-03-02T14:16:12;16.90;47.00
4107;DHT22;21906;50.812;7.132;2024-03-02T14:18:38;16.60;47.70
4107;DHT22;21906;50.812;7.132;2024-03-02T14:21:04;16.40;48.40
4107;DHT22;21906;50.812;7.132;2024-03-02T14:23:29;16.40;48.70
4107;DHT22;21906;50.812;7.132;2024-03-02T14:25:55;16.30;48.60
4107;DHT22;21906;50.812;7.132;2024-03-02T14:28:22;16.10;49.20
4107;DHT22;21906;50.812;7.132;2024-03-02T14:30:48;16.00;48.80
4107;DHT22;21906;50.812;7.132;2024-03-02T14:33:15;15.90;49.50
4107;DHT22;21906;50.812;7.132;2024-03-02T14:35:42;15.80;49.30
4107;DHT22;21906;50.812;7.132;2024-03-02T14:38:08;15.80;49.10
4107;DHT22;21906;50.812;7.132;2024-03-02T14:40:33;15.60;49.10
4107;DHT22;21906;50.812;7.132;2024-03-02T14:42:59;15.40;49.20
4107;DHT22;21906;50.812;7.132;2024-03-02T14:45:25;15.40;49.30
4107;DHT22;21906;50.812;7.132;2024-03-02T14:47:52;15.30;50.20
4107;DHT22;21906;50.812;7.132;2024-03-02T14:50:18;15.40;50.20
4107;DHT22;21906;50.812;7.132;2024-03-02T14:52:44;15.30;50.00
4107;DHT22;21906;50.812;7.132;2024-03-02T14:55:11;15.20;50.20
4107;DHT22;21906;50.812;7.132;2024-03-02T14:57:36;15.20;50.30
4107;DHT22;21906;50.812;7.132;2024-03-02T15:00:03;15.20;50.60
4107;DHT22;21906;50.812;7.132;2024-03-02T15:02:31;15.20;50.60
4107;DHT22;21906;50.812;7.132;2024-03-02T15:04:57;15.20;50.70
4107;DHT22;21906;50.812;7.132;2024-03-02T15:07:22;15.10;50.70
4107;DHT22;21906;50.812;7.132;2024-03-02T15:09:48;15.10;50.30
4107;DHT22;21906;50.812;7.132;2024-03-02T15:12:14;15.20;50.10
4107;DHT22;21906;50.812;7.132;2024-03-02T15:14:40;15.20;50.20
4107;DHT22;21906;50.812;7.132;2024-03-02T15:17:15;15.20;50.50
4107;DHT22;21906;50.812;7.132;2024-03-02T15:19:45;15.20;50.40
4107;DHT22;21906;50.812;7.132;2024-03-02T15:22:11;15.30;50.00
4107;DHT22;21906;50.812;7.132;2024-03-02T15:24:37;15.40;50.30
4107;DHT22;21906;50.812;7.132;2024-03-02T15:27:04;15.50;50.00
4107;DHT22;21906;50.812;7.132;2024-03-02T15:29:31;15.60;49.50
4107;DHT22;21906;50.812;7.132;2024-03-02T15:31:57;15.70;49.40
4107;DHT22;21906;50.812;7.132;2024-03-02T15:34:23;15.60;49.10
4107;DHT22;21906;50.812;7.132;2024-03-02T15:36:49;15.50;49.30
4107;DHT22;21906;50.812;7.132;2024-03-02T15:39:15;15.50;49.30
4107;DHT22;21906;50.812;7.132;2024-03-02T15:41:44;15.50;49.20
4107;DHT22;21906;50.812;7.132;2024-03-02T15:44:09;15.40;49.30
4107;DHT22;21906;50.812;7.132;2024-03-02T15:46:35;15.40;49.40
4107;DHT22;21906;50.812;7.132;2024-03-02T15:49:01;15.40;49.60
4107;DHT22;21906;50.812;7.132;2024-03-02T15:51:27;15.40;49.50
4107;DHT22;21906;50.812;7.132;2024-03-02T15:53:53;15.40;49.30
4107;DHT22;21906;50.812;7.132;2024-03-02T15:56:18;15.40;49.50
4107;DHT22;21906;50.812;7.132;2024-03-02T15:58:44;15.30;49.50